createdAt,value
2023-04-27T00:00:09.271Z,28.56
2023-04-27T00:01:09.330Z,28.56
2023-04-27T00:02:09.405Z,28.58
2023-04-27T00:03:09.900Z,28.53
2023-04-27T00:04:09.840Z,28.55
2023-04-27T00:05:09.722Z,28.54
2023-04-27T00:06:09.700Z,28.53
2023-04-27T00:07:09.688Z,28.51
2023-04-27T00:08:09.744Z,28.54
2023-04-27T00:09:09.834Z,28.56
2023-04-27T00:10:09.838Z,28.52
2023-04-27T00:11:09.916Z,28.58
2023-04-27T00:12:09.945Z,28.54
2023-04-27T00:13:10.041Z,28.51
2023-04-27T00:14:10.086Z,28.53
2023-04-27T00:15:10.118Z,28.57
2023-04-27T00:16:10.232Z,28.53
2023-04-27T00:17:10.260Z,28.55
2023-04-27T00:18:10.328Z,28.57
2023-04-27T00:19:10.348Z,28.51
2023-04-27T00:20:10.418Z,28.52
2023-04-27T00:21:10.444Z,28.55
2023-04-27T00:22:10.556Z,28.51
2023-04-27T00:23:10.606Z,28.47
2023-04-27T00:24:10.654Z,28.58
2023-04-27T00:25:10.702Z,28.52
2023-04-27T00:26:10.790Z,28.54
2023-04-27T00:27:10.845Z,28.58
2023-04-27T00:28:10.875Z,28.57
2023-04-27T00:29:11.002Z,28.51
2023-04-27T00:30:11.019Z,28.55
2023-04-27T00:31:11.071Z,28.54
2023-04-27T00:32:11.187Z,28.58
2023-04-27T00:33:11.192Z,28.59
2023-04-27T00:34:11.237Z,28.52
2023-04-27T00:35:11.322Z,28.50
2023-04-27T00:36:11.394Z,28.55
2023-04-27T00:37:11.426Z,28.52
2023-04-27T00:38:11.522Z,28.53
2023-04-27T00:39:11.716Z,28.54
2023-04-27T00:40:11.653Z,28.55
2023-04-27T00:41:11.699Z,28.52
2023-04-27T00:42:11.736Z,28.52
2023-04-27T00:43:11.813Z,28.47
2023-04-27T00:44:11.842Z,28.55
2023-04-27T00:45:11.904Z,28.54
2023-04-27T00:46:12.008Z,28.50
2023-04-27T00:47:12.039Z,28.51
2023-04-27T00:48:12.117Z,28.52
2023-04-27T00:49:12.371Z,28.52
2023-04-27T00:50:12.217Z,28.54
2023-04-27T00:51:12.243Z,28.55
2023-04-27T00:52:12.302Z,28.51
2023-04-27T00:53:12.656Z,28.51
2023-04-27T00:54:12.430Z,28.54
2023-04-27T00:55:12.496Z,28.48
2023-04-27T00:56:12.518Z,28.51
2023-04-27T00:57:12.657Z,28.55
2023-04-27T00:58:12.650Z,28.47
2023-04-27T00:59:12.933Z,28.51
2023-04-27T01:00:12.769Z,28.50
2023-04-27T01:01:12.921Z,28.48
2023-04-27T01:02:12.945Z,28.52
2023-04-27T01:03:13.085Z,28.48
2023-04-27T01:04:13.141Z,28.48
2023-04-27T01:05:13.080Z,28.50
2023-04-27T01:06:13.114Z,28.54
2023-04-27T01:07:13.203Z,28.52
2023-04-27T01:08:13.263Z,28.58
2023-04-27T01:09:13.570Z,28.54
2023-04-27T01:10:13.395Z,28.58
2023-04-27T01:11:13.440Z,28.59
2023-04-27T01:12:13.502Z,28.57
2023-04-27T01:13:13.581Z,28.50
2023-04-27T01:14:13.638Z,28.50
2023-04-27T01:15:13.676Z,28.59
2023-04-27T01:16:13.792Z,28.54
2023-04-27T01:17:13.805Z,28.54
2023-04-27T01:18:13.892Z,28.58
2023-04-27T01:19:14.176Z,28.51
2023-04-27T01:20:14.006Z,28.50
2023-04-27T01:21:14.075Z,28.50
2023-04-27T01:22:14.119Z,28.54
2023-04-27T01:23:16.623Z,28.51
2023-04-27T01:24:14.209Z,28.50
2023-04-27T01:25:14.166Z,28.51
2023-04-27T01:26:14.137Z,28.52
2023-04-27T01:27:14.158Z,28.52
2023-04-27T01:28:14.148Z,28.51
2023-04-27T01:29:14.319Z,28.54
2023-04-27T01:30:14.147Z,28.50
2023-04-27T01:31:14.159Z,28.46
2023-04-27T01:32:14.101Z,28.51
2023-04-27T01:33:14.107Z,28.52
2023-04-27T01:34:14.095Z,28.48
2023-04-27T01:35:14.089Z,28.50
2023-04-27T01:36:14.065Z,28.45
2023-04-27T01:37:14.048Z,28.50
2023-04-27T01:38:14.088Z,28.54
2023-04-27T01:39:14.431Z,28.48
2023-04-27T01:40:14.056Z,28.50
2023-04-27T01:41:14.069Z,28.49
2023-04-27T01:42:14.063Z,28.47
2023-04-27T01:43:14.020Z,28.47
2023-04-27T01:44:14.041Z,28.52
2023-04-27T01:45:14.013Z,28.52
2023-04-27T01:46:14.045Z,28.51
2023-04-27T01:47:14.008Z,28.51
2023-04-27T01:48:14.036Z,28.47
2023-04-27T01:49:14.128Z,28.50
2023-04-27T01:50:13.998Z,28.51
2023-04-27T01:51:14.007Z,28.52
2023-04-27T01:52:13.954Z,28.54
2023-04-27T01:53:13.961Z,28.48
2023-04-27T01:54:13.980Z,28.44
2023-04-27T01:55:13.943Z,28.45
2023-04-27T01:56:13.934Z,28.50
2023-04-27T01:57:13.972Z,28.45
2023-04-27T01:58:13.983Z,28.45
2023-04-27T01:59:14.289Z,28.48
2023-04-27T02:00:14.099Z,28.50
2023-04-27T02:01:14.197Z,28.48
2023-04-27T02:02:14.242Z,28.52
2023-04-27T02:03:14.384Z,28.45
2023-04-27T02:04:14.476Z,28.55
2023-04-27T02:05:14.454Z,28.49
2023-04-27T02:06:14.486Z,28.51
2023-04-27T02:07:14.534Z,28.50
2023-04-27T02:08:14.635Z,28.52
2023-04-27T02:09:14.874Z,28.51
2023-04-27T02:10:14.715Z,28.48
2023-04-27T02:11:14.773Z,28.50
2023-04-27T02:12:14.813Z,28.47
2023-04-27T02:13:14.877Z,28.49
2023-04-27T02:14:14.972Z,28.50
2023-04-27T02:15:14.993Z,28.51
2023-04-27T02:16:15.122Z,28.51
2023-04-27T02:17:15.154Z,28.52
2023-04-27T02:18:15.202Z,28.47
2023-04-27T02:19:15.549Z,28.49
2023-04-27T02:20:15.298Z,28.51
2023-04-27T02:21:15.353Z,28.48
2023-04-27T02:22:15.446Z,28.51
2023-04-27T02:23:15.503Z,28.48
2023-04-27T02:24:15.557Z,28.41
2023-04-27T02:25:15.603Z,28.48
2023-04-27T02:26:15.692Z,28.49
2023-04-27T02:27:15.756Z,28.49
2023-04-27T02:28:15.814Z,28.49
2023-04-27T02:29:16.074Z,28.48
2023-04-27T02:30:15.999Z,28.45
2023-04-27T02:31:16.064Z,28.50
2023-04-27T02:32:16.083Z,28.49
2023-04-27T02:33:16.143Z,28.49
2023-04-27T02:34:16.184Z,28.45
2023-04-27T02:35:16.228Z,28.47
2023-04-27T02:36:16.304Z,28.50
2023-04-27T02:37:16.386Z,28.47
2023-04-27T02:38:16.454Z,28.48
2023-04-27T02:39:16.575Z,28.49
2023-04-27T02:40:16.568Z,28.47
2023-04-27T02:41:16.612Z,28.49
2023-04-27T02:42:16.681Z,28.52
2023-04-27T02:43:16.718Z,28.42
2023-04-27T02:44:16.795Z,28.49
2023-04-27T02:45:16.881Z,28.53
2023-04-27T02:46:16.976Z,28.45
2023-04-27T02:47:16.995Z,28.44
2023-04-27T02:48:17.040Z,28.48
2023-04-27T02:49:17.109Z,28.47
2023-04-27T02:50:17.160Z,28.46
2023-04-27T02:51:17.220Z,28.48
2023-04-27T02:52:17.284Z,28.49
2023-04-27T02:53:17.328Z,28.49
2023-04-27T02:54:17.418Z,28.55
2023-04-27T02:55:17.441Z,28.47
2023-04-27T02:56:17.505Z,28.50
2023-04-27T02:57:17.600Z,28.47
2023-04-27T02:58:17.631Z,28.48
2023-04-27T02:59:17.717Z,28.48
2023-04-27T03:00:17.741Z,28.43
2023-04-27T03:01:17.859Z,28.46
2023-04-27T03:02:17.962Z,28.45
2023-04-27T03:03:18.095Z,28.44
2023-04-27T03:04:18.159Z,28.47
2023-04-27T03:05:18.061Z,28.45
2023-04-27T03:06:18.109Z,28.43
2023-04-27T03:07:18.189Z,28.45
2023-04-27T03:08:18.249Z,28.44
2023-04-27T03:09:18.323Z,28.48
2023-04-27T03:10:18.358Z,28.46
2023-04-27T03:11:18.462Z,28.45
2023-04-27T03:12:18.674Z,28.44
2023-04-27T03:13:18.535Z,28.46
2023-04-27T03:14:18.593Z,28.42
2023-04-27T03:15:18.688Z,28.45
2023-04-27T03:16:18.813Z,28.46
2023-04-27T03:17:18.803Z,28.47
2023-04-27T03:18:18.850Z,28.46
2023-04-27T03:19:18.889Z,28.42
2023-04-27T03:20:18.953Z,28.42
2023-04-27T03:21:19.042Z,28.42
2023-04-27T03:22:19.085Z,28.43
2023-04-27T03:23:19.143Z,28.46
2023-04-27T03:24:19.170Z,28.45
2023-04-27T03:25:19.227Z,28.45
2023-04-27T03:26:19.293Z,28.43
2023-04-27T03:27:19.381Z,28.42
2023-04-27T03:28:19.400Z,28.38
2023-04-27T03:29:19.457Z,28.40
2023-04-27T03:30:19.534Z,28.43
2023-04-27T03:31:19.660Z,28.42
2023-04-27T03:32:19.648Z,28.40
2023-04-27T03:33:19.746Z,28.40
2023-04-27T03:34:19.787Z,28.41
2023-04-27T03:35:19.824Z,28.45
2023-04-27T03:36:19.869Z,28.39
2023-04-27T03:37:19.946Z,28.39
2023-04-27T03:38:20.029Z,28.45
2023-04-27T03:39:20.065Z,28.40
2023-04-27T03:40:20.105Z,28.41
2023-04-27T03:41:20.148Z,28.45
2023-04-27T03:42:20.193Z,28.43
2023-04-27T03:43:20.252Z,28.42
2023-04-27T03:44:20.282Z,28.42
2023-04-27T03:45:20.325Z,28.41
2023-04-27T03:46:20.439Z,28.41
2023-04-27T03:47:20.475Z,28.41
2023-04-27T03:48:20.508Z,28.43
2023-04-27T03:49:20.542Z,28.43
2023-04-27T03:50:20.578Z,28.45
2023-04-27T03:51:20.659Z,28.41
2023-04-27T03:52:20.745Z,28.42
2023-04-27T03:53:20.764Z,28.46
2023-04-27T03:54:20.842Z,28.42
2023-04-27T03:55:20.875Z,28.39
2023-04-27T03:56:20.947Z,28.42
2023-04-27T03:57:21.019Z,28.43
2023-04-27T03:58:21.048Z,28.45
2023-04-27T03:59:21.054Z,28.43
2023-04-27T04:00:21.108Z,28.41
2023-04-27T04:01:21.111Z,28.39
2023-04-27T04:02:21.248Z,28.43
2023-04-27T04:03:21.626Z,28.42
2023-04-27T04:04:21.378Z,28.41
2023-04-27T04:05:21.376Z,28.43
2023-04-27T04:06:21.349Z,28.45
2023-04-27T04:07:21.439Z,28.43
2023-04-27T04:08:21.467Z,28.35
2023-04-27T04:09:23.837Z,28.42
2023-04-27T04:10:21.662Z,28.43
2023-04-27T04:11:21.738Z,28.42
2023-04-27T04:12:21.803Z,28.42
2023-04-27T04:13:21.817Z,28.41
2023-04-27T04:14:21.862Z,28.46
2023-04-27T04:15:21.921Z,28.39
2023-04-27T04:16:21.993Z,28.38
2023-04-27T04:17:22.032Z,28.41
2023-04-27T04:18:22.026Z,28.41
2023-04-27T04:19:22.268Z,28.41
2023-04-27T04:20:22.096Z,28.43
2023-04-27T04:21:22.166Z,28.47
2023-04-27T04:22:22.206Z,28.43
2023-04-27T04:23:22.257Z,28.43
2023-04-27T04:24:22.267Z,28.39
2023-04-27T04:25:22.326Z,28.43
2023-04-27T04:26:22.381Z,28.41
2023-04-27T04:27:22.457Z,28.42
2023-04-27T04:28:22.415Z,28.41
2023-04-27T04:29:22.472Z,28.39
2023-04-27T04:30:22.516Z,28.43
2023-04-27T04:31:22.556Z,28.43
2023-04-27T04:32:22.668Z,28.41
2023-04-27T04:33:22.641Z,28.38
2023-04-27T04:34:22.700Z,28.42
2023-04-27T04:35:22.704Z,28.45
2023-04-27T04:36:22.778Z,28.41
2023-04-27T04:37:22.793Z,28.45
2023-04-27T04:38:22.811Z,28.45
2023-04-27T04:39:22.826Z,28.40
2023-04-27T04:40:22.864Z,28.38
2023-04-27T04:41:22.890Z,28.42
2023-04-27T04:42:23.723Z,28.41
2023-04-27T04:43:22.949Z,28.42
2023-04-27T04:44:22.984Z,28.43
2023-04-27T04:45:23.036Z,28.47
2023-04-27T04:46:23.080Z,28.47
2023-04-27T04:47:23.137Z,28.46
2023-04-27T04:48:23.096Z,28.49
2023-04-27T04:49:23.119Z,28.54
2023-04-27T04:50:23.168Z,28.68
2023-04-27T04:51:23.202Z,28.63
2023-04-27T04:52:23.248Z,28.77
2023-04-27T04:53:23.259Z,28.80
2023-04-27T04:54:23.296Z,28.84
2023-04-27T04:55:23.330Z,28.74
2023-04-27T04:56:23.367Z,28.78
2023-04-27T04:57:23.360Z,28.73
2023-04-27T04:58:23.394Z,28.73
2023-04-27T04:59:23.423Z,28.74
2023-04-27T05:00:23.472Z,28.73
2023-04-27T05:01:23.539Z,28.70
2023-04-27T05:02:23.619Z,28.77
2023-04-27T05:03:23.653Z,28.85
2023-04-27T05:04:23.706Z,28.94
2023-04-27T05:05:23.627Z,28.84
2023-04-27T05:06:23.547Z,28.86
2023-04-27T05:07:25.016Z,28.89
2023-04-27T05:08:23.625Z,28.91
2023-04-27T05:09:23.604Z,28.86
2023-04-27T05:10:23.651Z,28.89
2023-04-27T05:11:23.670Z,28.92
2023-04-27T05:12:23.755Z,28.93
2023-04-27T05:13:23.754Z,28.95
2023-04-27T05:14:23.801Z,28.97
2023-04-27T05:15:23.822Z,28.97
2023-04-27T05:16:23.891Z,29.01
2023-04-27T05:17:23.912Z,29.03
2023-04-27T05:18:23.890Z,29.01
2023-04-27T05:19:23.933Z,28.96
2023-04-27T05:20:23.950Z,29.03
2023-04-27T05:21:23.955Z,29.09
2023-04-27T05:22:23.984Z,29.05
2023-04-27T05:23:23.985Z,29.10
2023-04-27T05:24:23.976Z,29.08
2023-04-27T05:25:23.969Z,29.18
2023-04-27T05:26:24.006Z,29.13
2023-04-27T05:27:24.019Z,29.14
2023-04-27T05:28:24.031Z,29.18
2023-04-27T05:29:24.068Z,29.20
2023-04-27T05:30:24.127Z,29.20
2023-04-27T05:31:24.214Z,29.17
2023-04-27T05:32:24.222Z,29.27
2023-04-27T05:33:24.157Z,29.23
2023-04-27T05:34:24.249Z,29.25
2023-04-27T05:35:24.247Z,29.20
2023-04-27T05:36:24.294Z,29.22
2023-04-27T05:37:24.336Z,29.37
2023-04-27T05:38:24.296Z,29.87
2023-04-27T05:39:24.361Z,29.91
2023-04-27T05:40:24.410Z,30.06
2023-04-27T05:41:24.459Z,30.06
2023-04-27T05:42:24.751Z,30.13
2023-04-27T05:43:24.505Z,30.16
2023-04-27T05:44:24.554Z,30.16
2023-04-27T05:45:24.622Z,30.21
2023-04-27T05:46:24.740Z,30.48
2023-04-27T05:47:24.756Z,31.79
2023-04-27T05:48:25.269Z,30.95
2023-04-27T05:49:24.960Z,30.84
2023-04-27T05:50:24.936Z,30.81
2023-04-27T05:51:24.983Z,30.82
2023-04-27T05:52:25.028Z,31.13
2023-04-27T05:53:25.302Z,31.86
2023-04-27T05:54:25.165Z,31.78
2023-04-27T05:55:25.182Z,32.09
2023-04-27T05:56:25.250Z,33.26
2023-04-27T05:57:25.284Z,33.25
2023-04-27T05:58:25.304Z,33.16
2023-04-27T05:59:25.342Z,33.56
2023-04-27T06:00:25.405Z,32.88
2023-04-27T06:01:25.398Z,31.58
2023-04-27T06:02:25.668Z,31.99
2023-04-27T06:03:25.580Z,31.35
2023-04-27T06:04:25.707Z,31.11
2023-04-27T06:05:25.579Z,31.64
2023-04-27T06:06:25.610Z,31.28
2023-04-27T06:07:25.664Z,31.30
2023-04-27T06:08:25.823Z,31.34
2023-04-27T06:09:25.792Z,31.26
2023-04-27T06:10:25.888Z,31.23
2023-04-27T06:11:25.910Z,31.13
2023-04-27T06:12:25.958Z,31.30
2023-04-27T06:13:26.025Z,31.02
2023-04-27T06:14:26.084Z,31.27
2023-04-27T06:15:26.104Z,31.14
2023-04-27T06:16:26.266Z,30.92
2023-04-27T06:17:26.257Z,30.99
2023-04-27T06:18:26.325Z,30.96
2023-04-27T06:19:26.365Z,30.89
2023-04-27T06:20:26.440Z,30.95
2023-04-27T06:21:26.529Z,30.88
2023-04-27T06:22:26.571Z,30.88
2023-04-27T06:23:26.632Z,30.83
2023-04-27T06:24:26.691Z,31.06
2023-04-27T06:25:27.379Z,30.88
2023-04-27T06:26:26.794Z,30.84
2023-04-27T06:27:26.872Z,31.02
2023-04-27T06:28:26.932Z,31.61
2023-04-27T06:29:26.986Z,30.99
2023-04-27T06:30:27.060Z,31.06
2023-04-27T06:31:27.168Z,30.76
2023-04-27T06:32:27.186Z,31.02
2023-04-27T06:33:27.210Z,31.02
2023-04-27T06:34:27.301Z,31.22
2023-04-27T06:35:27.330Z,31.21
2023-04-27T06:36:27.406Z,30.95
2023-04-27T06:37:27.451Z,31.17
2023-04-27T06:38:27.511Z,31.13
2023-04-27T06:39:27.584Z,30.95
2023-04-27T06:40:27.727Z,30.90
2023-04-27T06:41:27.688Z,30.83
2023-04-27T06:42:27.733Z,31.18
2023-04-27T06:43:27.813Z,31.18
2023-04-27T06:44:27.872Z,31.13
2023-04-27T06:45:28.051Z,31.27
2023-04-27T06:46:28.017Z,31.02
2023-04-27T06:47:27.957Z,30.57
2023-04-27T06:48:28.276Z,30.81
2023-04-27T06:49:28.009Z,30.89
2023-04-27T06:50:28.115Z,30.51
2023-04-27T06:51:28.096Z,30.39
2023-04-27T06:52:28.083Z,30.31
2023-04-27T06:53:28.131Z,30.57
2023-04-27T06:54:28.233Z,30.82
2023-04-27T06:55:28.240Z,31.55
2023-04-27T06:56:28.291Z,31.47
2023-04-27T06:57:28.414Z,31.71
2023-04-27T06:58:28.298Z,31.86
2023-04-27T06:59:28.415Z,32.22
2023-04-27T07:00:28.518Z,32.33
2023-04-27T07:01:28.552Z,32.59
2023-04-27T07:02:28.452Z,32.83
2023-04-27T07:03:28.494Z,32.81
2023-04-27T07:04:28.543Z,32.73
2023-04-27T07:05:28.505Z,32.87
2023-04-27T07:06:28.579Z,32.73
2023-04-27T07:07:28.643Z,32.84
2023-04-27T07:08:28.657Z,33.10
2023-04-27T07:09:28.894Z,33.34
2023-04-27T07:10:28.690Z,33.26
2023-04-27T07:11:28.723Z,33.24
2023-04-27T07:12:28.708Z,33.23
2023-04-27T07:13:28.783Z,33.14
2023-04-27T07:14:28.738Z,33.20
2023-04-27T07:15:28.762Z,33.24
2023-04-27T07:16:28.824Z,33.27
2023-04-27T07:17:28.848Z,33.29
2023-04-27T07:18:28.895Z,33.32
2023-04-27T07:19:28.845Z,33.35
2023-04-27T07:20:28.834Z,33.44
2023-04-27T07:21:28.803Z,33.50
2023-04-27T07:22:28.874Z,33.51
2023-04-27T07:23:28.818Z,33.57
2023-04-27T07:24:28.842Z,33.63
2023-04-27T07:25:28.823Z,33.67
2023-04-27T07:26:28.810Z,33.77
2023-04-27T07:27:28.835Z,33.88
2023-04-27T07:28:28.829Z,33.83
2023-04-27T07:29:29.192Z,33.91
2023-04-27T07:30:28.818Z,34.01
2023-04-27T07:31:28.940Z,34.16
2023-04-27T07:32:28.980Z,34.28
2023-04-27T07:33:29.294Z,34.57
2023-04-27T07:34:35.056Z,34.57
2023-04-27T07:35:30.035Z,34.57
2023-04-27T07:36:29.065Z,34.45
2023-04-27T07:37:29.014Z,34.32
2023-04-27T07:38:29.034Z,34.42
2023-04-27T07:39:28.999Z,34.55
2023-04-27T07:40:28.987Z,34.95
2023-04-27T07:41:28.984Z,35.24
2023-04-27T07:42:28.974Z,35.23
2023-04-27T07:43:29.310Z,35.22
2023-04-27T07:44:28.999Z,35.24
2023-04-27T07:45:29.136Z,35.38
2023-04-27T07:46:29.084Z,35.24
2023-04-27T07:47:29.159Z,35.19
2023-04-27T07:48:29.360Z,35.19
2023-04-27T07:49:29.210Z,35.22
2023-04-27T07:50:29.211Z,35.05
2023-04-27T07:51:29.231Z,34.91
2023-04-27T07:52:29.189Z,34.87
2023-04-27T07:53:29.204Z,34.93
2023-04-27T07:54:29.187Z,34.92
2023-04-27T07:55:29.194Z,34.92
2023-04-27T07:56:29.211Z,35.00
2023-04-27T07:57:29.205Z,35.00
2023-04-27T07:58:29.190Z,35.19
2023-04-27T07:59:29.187Z,35.19
2023-04-27T08:00:29.190Z,35.17
2023-04-27T08:01:29.229Z,35.25
2023-04-27T08:02:29.361Z,35.29
2023-04-27T08:03:29.521Z,35.31
2023-04-27T08:04:29.717Z,35.31
2023-04-27T08:05:29.892Z,35.21
2023-04-27T08:06:29.811Z,35.27
2023-04-27T08:07:29.427Z,35.32
2023-04-27T08:08:29.822Z,35.43
2023-04-27T08:09:29.371Z,35.44
2023-04-27T08:10:29.374Z,35.34
2023-04-27T08:11:29.406Z,35.37
2023-04-27T08:12:29.424Z,35.40
2023-04-27T08:13:29.855Z,35.43
2023-04-27T08:14:29.485Z,35.44
2023-04-27T08:15:29.533Z,35.49
2023-04-27T08:16:29.604Z,35.45
2023-04-27T08:17:29.579Z,35.49
2023-04-27T08:18:29.586Z,35.44
2023-04-27T08:19:29.617Z,35.52
2023-04-27T08:20:29.629Z,35.57
2023-04-27T08:21:29.670Z,35.57
2023-04-27T08:22:29.710Z,35.54
2023-04-27T08:23:29.714Z,35.47
2023-04-27T08:24:29.729Z,35.47
2023-04-27T08:25:29.791Z,35.52
2023-04-27T08:26:29.828Z,35.54
2023-04-27T08:27:29.847Z,35.55
2023-04-27T08:28:29.868Z,35.54
2023-04-27T08:29:30.014Z,35.57
2023-04-27T08:30:29.918Z,35.67
2023-04-27T08:31:29.987Z,36.05
2023-04-27T08:32:29.957Z,36.07
2023-04-27T08:33:29.957Z,36.01
2023-04-27T08:34:30.020Z,36.12
2023-04-27T08:35:30.027Z,36.24
2023-04-27T08:36:30.054Z,36.16
2023-04-27T08:37:30.054Z,36.27
2023-04-27T08:38:30.311Z,36.63
2023-04-27T08:39:30.111Z,36.54
2023-04-27T08:40:30.123Z,35.74
2023-04-27T08:41:30.140Z,34.11
2023-04-27T08:42:30.210Z,33.21
2023-04-27T08:43:30.253Z,32.05
2023-04-27T08:44:30.256Z,31.72
2023-04-27T08:45:30.267Z,32.12
2023-04-27T08:46:30.295Z,31.52
2023-04-27T08:47:41.815Z,31.53
2023-04-27T08:48:31.361Z,31.84
2023-04-27T08:49:30.377Z,31.32
2023-04-27T08:50:30.335Z,31.73
2023-04-27T08:51:30.345Z,31.72
2023-04-27T08:52:30.349Z,31.35
2023-04-27T08:53:30.329Z,32.09
2023-04-27T08:54:30.343Z,31.67
2023-04-27T08:55:30.297Z,31.75
2023-04-27T08:56:30.305Z,32.80
2023-04-27T08:57:30.317Z,34.16
2023-04-27T08:58:30.332Z,34.90
2023-04-27T08:59:30.287Z,34.08
2023-04-27T09:00:30.276Z,34.09
2023-04-27T09:01:30.323Z,33.99
2023-04-27T09:02:30.371Z,34.01
2023-04-27T09:03:30.450Z,36.43
2023-04-27T09:04:30.391Z,35.82
2023-04-27T09:05:30.376Z,36.41
2023-04-27T09:06:30.405Z,35.79
2023-04-27T09:07:30.387Z,35.88
2023-04-27T09:08:30.421Z,35.98
2023-04-27T09:09:30.445Z,36.49
2023-04-27T09:10:30.479Z,36.04
2023-04-27T09:11:30.469Z,35.96
2023-04-27T09:12:30.526Z,36.09
2023-04-27T09:13:30.535Z,36.60
2023-04-27T09:14:30.550Z,37.29
2023-04-27T09:15:30.526Z,36.53
2023-04-27T09:16:30.540Z,39.48
2023-04-27T09:17:30.766Z,37.91
2023-04-27T09:18:30.581Z,40.09
2023-04-27T09:19:30.612Z,38.69
2023-04-27T09:20:30.674Z,36.94
2023-04-27T09:21:30.778Z,36.70
2023-04-27T09:22:30.764Z,37.26
2023-04-27T09:23:30.866Z,38.16
2023-04-27T09:24:30.929Z,38.71
2023-04-27T09:25:30.938Z,39.75
2023-04-27T09:26:30.993Z,38.82
2023-04-27T09:27:31.032Z,38.03
2023-04-27T09:28:31.156Z,38.27
2023-04-27T09:29:31.130Z,39.33
2023-04-27T09:30:31.158Z,38.52
2023-04-27T09:31:31.205Z,39.31
2023-04-27T09:32:31.202Z,38.06
2023-04-27T09:33:31.199Z,37.66
2023-04-27T09:34:31.226Z,37.46
2023-04-27T09:35:31.202Z,37.49
2023-04-27T09:36:31.223Z,37.46
2023-04-27T09:37:31.234Z,37.41
2023-04-27T09:38:31.266Z,37.43
2023-04-27T09:39:31.389Z,37.47
2023-04-27T09:40:31.434Z,37.86
2023-04-27T09:41:31.292Z,37.87
2023-04-27T09:42:31.346Z,37.77
2023-04-27T09:43:31.401Z,37.75
2023-04-27T09:44:31.886Z,38.03
2023-04-27T09:45:31.488Z,37.97
2023-04-27T09:46:31.504Z,37.76
2023-04-27T09:47:31.547Z,37.19
2023-04-27T09:48:31.537Z,36.28
2023-04-27T09:49:31.880Z,35.69
2023-04-27T09:50:31.675Z,35.30
2023-04-27T09:51:31.737Z,34.75
2023-04-27T09:52:31.792Z,34.52
2023-04-27T09:53:31.850Z,34.40
2023-04-27T09:54:31.929Z,34.32
2023-04-27T09:55:32.049Z,33.95
2023-04-27T09:56:32.035Z,33.82
2023-04-27T09:57:32.086Z,33.72
2023-04-27T09:58:32.108Z,33.64
2023-04-27T09:59:32.387Z,33.43
2023-04-27T10:00:32.173Z,33.39
2023-04-27T10:01:32.262Z,33.24
2023-04-27T10:02:35.088Z,33.16
2023-04-27T10:03:33.243Z,33.31
2023-04-27T10:04:32.382Z,32.80
2023-04-27T10:05:32.141Z,32.80
2023-04-27T10:06:32.162Z,32.62
2023-04-27T10:07:32.146Z,32.42
2023-04-27T10:08:32.146Z,33.11
2023-04-27T10:09:32.145Z,33.97
2023-04-27T10:10:32.134Z,34.21
2023-04-27T10:11:32.095Z,34.27
2023-04-27T10:12:32.141Z,34.23
2023-04-27T10:13:32.127Z,34.27
2023-04-27T10:14:32.214Z,34.37
2023-04-27T10:15:32.264Z,34.35
2023-04-27T10:16:32.351Z,34.32
2023-04-27T10:17:32.454Z,34.41
2023-04-27T10:18:32.441Z,34.39
2023-04-27T10:19:32.477Z,34.47
2023-04-27T10:20:32.536Z,34.46
2023-04-27T10:21:32.572Z,34.54
2023-04-27T10:22:32.658Z,34.60
2023-04-27T10:23:32.687Z,34.63
2023-04-27T10:24:32.734Z,34.62
2023-04-27T10:25:32.790Z,34.64
2023-04-27T10:26:33.605Z,34.63
2023-04-27T10:27:32.827Z,34.66
2023-04-27T10:28:32.855Z,34.72
2023-04-27T10:29:32.890Z,34.78
2023-04-27T10:30:33.078Z,34.77
2023-04-27T10:31:33.042Z,34.75
2023-04-27T10:32:33.061Z,34.76
2023-04-27T10:33:33.023Z,34.86
2023-04-27T10:34:33.374Z,34.93
2023-04-27T10:35:33.091Z,34.90
2023-04-27T10:36:33.150Z,34.85
2023-04-27T10:37:33.167Z,34.83
2023-04-27T10:38:33.198Z,34.87
2023-04-27T10:39:47.165Z,34.84
2023-04-27T10:40:34.211Z,34.78
2023-04-27T10:41:33.237Z,34.75
2023-04-27T10:42:33.202Z,34.69
2023-04-27T10:43:33.204Z,34.71
2023-04-27T10:44:33.163Z,34.70
2023-04-27T10:45:33.216Z,34.74
2023-04-27T10:46:33.253Z,34.70
2023-04-27T10:47:33.227Z,34.59
2023-04-27T10:48:33.206Z,34.65
2023-04-27T10:49:33.154Z,34.58
2023-04-27T10:50:33.160Z,34.62
2023-04-27T10:51:33.125Z,34.58
2023-04-27T10:52:33.131Z,34.58
2023-04-27T10:53:33.138Z,34.58
2023-04-27T10:54:33.208Z,34.57
2023-04-27T10:55:33.239Z,34.53
2023-04-27T10:56:33.313Z,34.55
2023-04-27T10:57:33.347Z,34.49
2023-04-27T10:58:48.265Z,34.52
2023-04-27T10:59:34.406Z,34.49
2023-04-27T11:00:33.411Z,34.48
2023-04-27T11:01:33.384Z,34.51
2023-04-27T11:02:33.455Z,34.50
2023-04-27T11:03:33.525Z,34.53
2023-04-27T11:04:33.389Z,34.43
2023-04-27T11:05:33.439Z,34.44
2023-04-27T11:06:33.335Z,34.49
2023-04-27T11:07:33.356Z,34.44
2023-04-27T11:08:33.329Z,34.39
2023-04-27T11:09:33.343Z,34.40
2023-04-27T11:10:33.341Z,34.43
2023-04-27T11:11:33.358Z,34.45
2023-04-27T11:12:33.327Z,34.41
2023-04-27T11:13:33.294Z,34.43
2023-04-27T11:14:33.274Z,34.40
2023-04-27T11:15:33.271Z,34.40
2023-04-27T11:16:33.316Z,34.35
2023-04-27T11:17:33.357Z,34.32
2023-04-27T11:18:33.270Z,34.34
2023-04-27T11:19:33.239Z,34.33
2023-04-27T11:20:33.218Z,34.34
2023-04-27T11:21:40.256Z,34.35
2023-04-27T11:22:33.224Z,34.31
2023-04-27T11:23:33.223Z,34.29
2023-04-27T11:24:33.202Z,34.28
2023-04-27T11:25:33.181Z,34.28
2023-04-27T11:26:33.205Z,34.27
2023-04-27T11:27:33.174Z,34.25
2023-04-27T11:28:33.174Z,34.27
2023-04-27T11:29:34.540Z,34.25
2023-04-27T11:30:33.170Z,34.27
2023-04-27T11:31:33.206Z,34.29
2023-04-27T11:32:33.169Z,34.26
2023-04-27T11:33:33.157Z,34.26
2023-04-27T11:34:40.487Z,34.17
2023-04-27T11:35:33.127Z,34.16
2023-04-27T11:36:33.121Z,34.14
2023-04-27T11:37:33.086Z,34.14
2023-04-27T11:38:33.148Z,34.10
2023-04-27T11:39:33.082Z,34.13
2023-04-27T11:40:33.080Z,34.12
2023-04-27T11:41:33.079Z,34.08
2023-04-27T11:42:33.061Z,34.13
2023-04-27T11:43:33.089Z,34.13
2023-04-27T11:44:33.093Z,34.11
2023-04-27T11:45:33.058Z,34.10
2023-04-27T11:46:33.062Z,34.06
2023-04-27T11:47:33.072Z,34.06
2023-04-27T11:48:33.043Z,34.06
2023-04-27T11:49:33.036Z,34.03
2023-04-27T11:50:33.001Z,34.03
2023-04-27T11:51:33.017Z,34.07
2023-04-27T11:52:33.003Z,33.98
2023-04-27T11:53:33.002Z,33.98
2023-04-27T11:54:33.071Z,33.98
2023-04-27T11:55:33.119Z,34.00
2023-04-27T11:56:33.172Z,33.94
2023-04-27T11:57:33.253Z,33.91
2023-04-27T11:58:33.258Z,33.89
2023-04-27T11:59:33.322Z,33.87
2023-04-27T12:00:33.382Z,33.92
2023-04-27T12:01:38.216Z,33.88
2023-04-27T12:02:34.506Z,33.85
2023-04-27T12:03:33.664Z,33.82
2023-04-27T12:04:33.549Z,33.84
2023-04-27T12:05:33.489Z,33.81
2023-04-27T12:06:33.759Z,33.78
2023-04-27T12:07:33.405Z,33.75
2023-04-27T12:08:33.374Z,33.71
2023-04-27T12:09:33.367Z,33.67
2023-04-27T12:10:33.349Z,33.64
2023-04-27T12:11:33.354Z,33.63
2023-04-27T12:12:33.360Z,33.63
2023-04-27T12:13:33.404Z,33.63
2023-04-27T12:14:33.457Z,33.56
2023-04-27T12:15:33.491Z,33.62
2023-04-27T12:16:33.591Z,33.62
2023-04-27T12:17:33.626Z,33.59
2023-04-27T12:18:33.620Z,33.51
2023-04-27T12:19:33.680Z,33.48
2023-04-27T12:20:33.745Z,33.50
2023-04-27T12:21:33.791Z,33.47
2023-04-27T12:22:33.839Z,33.55
2023-04-27T12:23:33.901Z,33.51
2023-04-27T12:24:33.957Z,33.43
2023-04-27T12:25:33.977Z,33.39
2023-04-27T12:26:34.043Z,33.37
2023-04-27T12:27:34.071Z,33.34
2023-04-27T12:28:34.140Z,33.27
2023-04-27T12:29:34.186Z,33.24
2023-04-27T12:30:34.230Z,33.29
2023-04-27T12:31:34.402Z,33.32
2023-04-27T12:32:34.349Z,33.28
2023-04-27T12:33:34.367Z,33.26
2023-04-27T12:34:34.461Z,33.25
2023-04-27T12:35:34.453Z,33.21
2023-04-27T12:36:34.495Z,33.20
2023-04-27T12:37:34.555Z,33.16
2023-04-27T12:38:34.582Z,33.14
2023-04-27T12:39:34.647Z,33.10
2023-04-27T12:40:34.713Z,33.06
2023-04-27T12:41:34.756Z,33.03
2023-04-27T12:42:34.802Z,33.00
2023-04-27T12:43:34.859Z,33.06
2023-04-27T12:44:34.894Z,33.03
2023-04-27T12:45:34.937Z,33.01
2023-04-27T12:46:35.021Z,32.92
2023-04-27T12:48:35.122Z,32.87
2023-04-27T12:49:35.052Z,32.86
2023-04-27T12:50:35.011Z,32.83
2023-04-27T12:51:35.016Z,32.84
2023-04-27T12:52:35.026Z,32.88
2023-04-27T12:53:34.974Z,32.79